sensor_id;sensor_type;location;lat;lon;timestamp;pressure;altitude;pressure_sealevel;temperature;humidity
73941;BME280;62294;48.554;10.202;2023-09-30T00:02:19;96818.31;;;14.16;100.00
73941;BME280;62294;48.554;10.202;2023-09-30T00:04:46;96822.22;;;14.14;100.00
73941;BME280;62294;48.554;10.202;2023-09-30T00:07:12;96824.84;;;14.20;100.00
73941;BME280;62294;48.554;10.202;2023-09-30T00:09:39;96832.25;;;14.18;100.00
73941;BME280;62294;48.554;10.202;2023-09-30T00:12:06;96839.38;;;14.06;100.00
73941;BME280;62294;48.554;10.202;2023-09-30T00:14:33;96842.31;;;13.80;100.00
73941;BME280;62294;48.554;10.202;2023-09-30T00:17:00;96832.63;;;13.61;100.00
73941;BME280;62294;48.554;10.202;2023-09-30T00:19:26;96838.56;;;13.63;100.00
73941;BME280;62294;48.554;10.202;2023-09-30T00:21:53;96836.47;;;13.65;100.00
73941;BME280;62294;48.554;10.202;2023-09-30T00:24:20;96829.22;;;13.72;100.00
73941;BME280;62294;48.554;10.202;2023-09-30T00:26:46;96839.97;;;13.66;100.00
73941;BME280;62294;48.554;10.202;2023-09-30T00:29:14;96833.44;;;13.62;100.00
73941;BME280;62294;48.554;10.202;2023-09-30T00:31:40;96832.06;;;13.52;100.00
73941;BME280;62294;48.554;10.202;2023-09-30T00:34:07;96831.84;;;13.54;100.00
73941;BME280;62294;48.554;10.202;2023-09-30T00:36:34;96829.91;;;13.43;100.00
73941;BME280;62294;48.554;10.202;2023-09-30T00:39:01;96828.28;;;13.60;100.00
73941;BME280;62294;48.554;10.202;2023-09-30T00:41:28;96823.13;;;13.65;100.00
73941;BME280;62294;48.554;10.202;2023-09-30T00:43:54;96820.28;;;13.60;100.00
73941;BME280;62294;48.554;10.202;2023-09-30T00:46:27;96818.50;;;13.54;100.00
73941;BME280;62294;48.554;10.202;2023-09-30T00:48:55;96815.19;;;13.34;100.00
73941;BME280;62294;48.554;10.202;2023-09-30T00:51:24;96818.16;;;13.19;100.00
73941;BME280;62294;48.554;10.202;2023-09-30T00:53:52;96814.53;;;13.01;100.00
73941;BME280;62294;48.554;10.202;2023-09-30T00:56:23;96814.44;;;12.89;100.00
73941;BME280;62294;48.554;10.202;2023-09-30T00:58:51;96805.25;;;12.78;100.00
73941;BME280;62294;48.554;10.202;2023-09-30T01:01:20;96809.63;;;12.73;100.00
73941;BME280;62294;48.554;10.202;2023-09-30T01:03:47;96804.13;;;12.61;100.00
73941;BME280;62294;48.554;10.202;2023-09-30T01:06:14;96806.66;;;12.50;100.00
73941;BME280;62294;48.554;10.202;2023-09-30T01:08:41;96797.81;;;12.49;100.00
73941;BME280;62294;48.554;10.202;2023-09-30T01:11:08;96798.88;;;12.42;100.00
73941;BME280;62294;48.554;10.202;2023-09-30T01:13:36;96786.59;;;12.41;100.00
73941;BME280;62294;48.554;10.202;2023-09-30T01:16:07;96789.72;;;12.31;100.00
73941;BME280;62294;48.554;10.202;2023-09-30T01:18:39;96788.13;;;12.17;100.00
73941;BME280;62294;48.554;10.202;2023-09-30T01:21:06;96792.47;;;12.05;100.00
73941;BME280;62294;48.554;10.202;2023-09-30T01:23:34;96788.19;;;11.97;100.00
73941;BME280;62294;48.554;10.202;2023-09-30T01:26:08;96786.16;;;11.93;100.00
73941;BME280;62294;48.554;10.202;2023-09-30T01:28:36;96779.00;;;11.87;100.00
73941;BME280;62294;48.554;10.202;2023-09-30T01:31:03;96778.41;;;11.78;100.00
73941;BME280;62294;48.554;10.202;2023-09-30T01:33:31;96773.09;;;11.72;100.00
73941;BME280;62294;48.554;10.202;2023-09-30T01:35:59;96773.09;;;11.65;100.00
73941;BME280;62294;48.554;10.202;2023-09-30T01:38:25;96774.94;;;11.58;100.00
73941;BME280;62294;48.554;10.202;2023-09-30T01:40:52;96776.16;;;11.56;100.00
73941;BME280;62294;48.554;10.202;2023-09-30T01:43:24;96775.97;;;11.51;100.00
73941;BME280;62294;48.554;10.202;2023-09-30T01:45:50;96772.50;;;11.43;100.00
73941;BME280;62294;48.554;10.202;2023-09-30T01:48:17;96771.25;;;11.46;100.00
73941;BME280;62294;48.554;10.202;2023-09-30T01:50:44;96768.41;;;11.48;100.00
73941;BME280;62294;48.554;10.202;2023-09-30T01:53:11;96770.06;;;11.35;100.00
73941;BME280;62294;48.554;10.202;2023-09-30T01:55:37;96764.94;;;11.27;100.00
73941;BME280;62294;48.554;10.202;2023-09-30T01:58:04;96768.81;;;11.18;100.00
73941;BME280;62294;48.554;10.202;2023-09-30T02:00:31;96765.16;;;11.13;100.00
73941;BME280;62294;48.554;10.202;2023-09-30T02:02:57;96763.09;;;11.21;100.00
73941;BME280;62294;48.554;10.202;2023-09-30T02:05:25;96759.81;;;11.26;100.00
73941;BME280;62294;48.554;10.202;2023-09-30T02:07:51;96763.91;;;11.28;100.00
73941;BME280;62294;48.554;10.202;2023-09-30T02:10:18;96764.31;;;11.25;100.00
73941;BME280;62294;48.554;10.202;2023-09-30T02:12:46;96760.22;;;11.16;100.00
73941;BME280;62294;48.554;10.202;2023-09-30T02:15:13;96763.50;;;11.12;100.00
73941;BME280;62294;48.554;10.202;2023-09-30T02:17:40;96768.00;;;11.11;100.00
73941;BME280;62294;48.554;10.202;2023-09-30T02:20:12;96759.44;;;11.22;100.00
73941;BME280;62294;48.554;10.202;2023-09-30T02:22:43;96750.81;;;11.33;100.00
73941;BME280;62294;48.554;10.202;2023-09-30T02:25:11;96756.72;;;11.42;100.00
73941;BME280;62294;48.554;10.202;2023-09-30T02:27:40;96741.78;;;11.48;100.00
73941;BME280;62294;48.554;10.202;2023-09-30T02:30:09;96736.84;;;11.51;100.00
73941;BME280;62294;48.554;10.202;2023-09-30T02:32:38;96735.22;;;11.43;100.00
73941;BME280;62294;48.554;10.202;2023-09-30T02:35:06;96734.44;;;11.43;100.00
73941;BME280;62294;48.554;10.202;2023-09-30T02:37:33;96740.53;;;11.43;100.00
73941;BME280;62294;48.554;10.202;2023-09-30T02:40:04;96743.44;;;11.35;100.00
73941;BME280;62294;48.554;10.202;2023-09-30T02:42:39;96732.81;;;11.09;100.00
73941;BME280;62294;48.554;10.202;2023-09-30T02:45:08;96728.72;;;11.00;100.00
73941;BME280;62294;48.554;10.202;2023-09-30T02:47:35;96738.56;;;11.06;100.00
73941;BME280;62294;48.554;10.202;2023-09-30T02:50:05;96733.44;;;10.98;100.00
73941;BME280;62294;48.554;10.202;2023-09-30T02:52:32;96732.81;;;11.09;100.00
73941;BME280;62294;48.554;10.202;2023-09-30T02:54:59;96734.03;;;11.00;100.00
73941;BME280;62294;48.554;10.202;2023-09-30T02:57:26;96733.41;;;11.11;100.00
73941;BME280;62294;48.554;10.202;2023-09-30T02:59:57;96734.84;;;11.33;100.00
73941;BME280;62294;48.554;10.202;2023-09-30T03:02:27;96740.19;;;11.27;100.00
73941;BME280;62294;48.554;10.202;2023-09-30T03:04:54;96738.31;;;11.40;100.00
73941;BME280;62294;48.554;10.202;2023-09-30T03:07:21;96732.56;;;11.57;100.00
73941;BME280;62294;48.554;10.202;2023-09-30T03:09:47;96717.56;;;11.82;100.00
73941;BME280;62294;48.554;10.202;2023-09-30T03:12:14;96722.03;;;11.88;100.00
73941;BME280;62294;48.554;10.202;2023-09-30T03:14:41;96721.59;;;11.97;100.00
73941;BME280;62294;48.554;10.202;2023-09-30T03:17:08;96723.78;;;12.07;100.00
73941;BME280;62294;48.554;10.202;2023-09-30T03:19:39;96720.63;;;12.23;100.00
73941;BME280;62294;48.554;10.202;2023-09-30T03:22:05;96726.75;;;12.30;100.00
73941;BME280;62294;48.554;10.202;2023-09-30T03:24:32;96729.50;;;12.17;100.00
73941;BME280;62294;48.554;10.202;2023-09-30T03:26:59;96732.59;;;12.07;100.00
73941;BME280;62294;48.554;10.202;2023-09-30T03:29:25;96737.56;;;12.04;100.00
73941;BME280;62294;48.554;10.202;2023-09-30T03:31:53;96734.88;;;12.04;100.00
73941;BME280;62294;48.554;10.202;2023-09-30T03:34:19;96730.56;;;12.03;100.00
73941;BME280;62294;48.554;10.202;2023-09-30T03:36:47;96731.97;;;12.12;100.00
73941;BME280;62294;48.554;10.202;2023-09-30T03:39:13;96734.00;;;12.17;100.00
73941;BME280;62294;48.554;10.202;2023-09-30T03:41:42;96743.88;;;12.16;100.00
73941;BME280;62294;48.554;10.202;2023-09-30T03:44:08;96742.25;;;12.08;100.00
73941;BME280;62294;48.554;10.202;2023-09-30T03:46:35;96747.00;;;12.00;100.00
73941;BME280;62294;48.554;10.202;2023-09-30T03:49:02;96753.19;;;11.87;100.00
73941;BME280;62294;48.554;10.202;2023-09-30T03:51:29;96749.31;;;11.64;100.00
73941;BME280;62294;48.554;10.202;2023-09-30T03:53:56;96750.38;;;11.56;100.00
73941;BME280;62294;48.554;10.202;2023-09-30T03:56:23;96745.47;;;11.47;100.00
73941;BME280;62294;48.554;10.202;2023-09-30T03:58:49;96744.88;;;11.45;100.00
73941;BME280;62294;48.554;10.202;2023-09-30T04:01:15;96742.22;;;11.38;100.00
73941;BME280;62294;48.554;10.202;2023-09-30T04:03:46;96734.03;;;11.33;100.00
73941;BME280;62294;48.554;10.202;2023-09-30T04:06:13;96736.88;;;11.38;100.00
73941;BME280;62294;48.554;10.202;2023-09-30T04:08:39;96724.59;;;11.37;100.00
73941;BME280;62294;48.554;10.202;2023-09-30T04:11:07;96732.78;;;11.35;100.00
73941;BME280;62294;48.554;10.202;2023-09-30T04:13:33;96733.19;;;11.32;100.00
73941;BME280;62294;48.554;10.202;2023-09-30T04:16:00;96722.78;;;11.31;100.00
73941;BME280;62294;48.554;10.202;2023-09-30T04:18:26;96728.69;;;11.33;100.00
73941;BME280;62294;48.554;10.202;2023-09-30T04:20:53;96736.88;;;11.38;100.00
73941;BME280;62294;48.554;10.202;2023-09-30T04:23:20;96731.56;;;11.45;100.00
73941;BME280;62294;48.554;10.202;2023-09-30T04:25:48;96732.75;;;11.49;100.00
73941;BME280;62294;48.554;10.202;2023-09-30T04:28:16;96730.31;;;11.54;100.00
73941;BME280;62294;48.554;10.202;2023-09-30T04:30:47;96734.81;;;11.47;100.00
73941;BME280;62294;48.554;10.202;2023-09-30T04:33:16;96729.91;;;11.43;100.00
73941;BME280;62294;48.554;10.202;2023-09-30T04:35:44;96728.28;;;11.43;100.00
73941;BME280;62294;48.554;10.202;2023-09-30T04:38:11;96734.00;;;11.39;100.00
73941;BME280;62294;48.554;10.202;2023-09-30T04:40:38;96736.28;;;11.36;100.00
73941;BME280;62294;48.554;10.202;2023-09-30T04:43:04;96738.13;;;11.35;100.00
73941;BME280;62294;48.554;10.202;2023-09-30T04:45:31;96742.84;;;11.33;100.00
73941;BME280;62294;48.554;10.202;2023-09-30T04:47:59;96753.28;;;11.28;100.00
73941;BME280;62294;48.554;10.202;2023-09-30T04:50:28;96757.38;;;11.31;100.00
73941;BME280;62294;48.554;10.202;2023-09-30T04:52:57;96755.53;;;11.38;100.00
73941;BME280;62294;48.554;10.202;2023-09-30T04:55:26;96763.91;;;11.35;100.00
73941;BME280;62294;48.554;10.202;2023-09-30T04:57:53;96774.94;;;11.32;100.00
73941;BME280;62294;48.554;10.202;2023-09-30T05:00:20;96767.59;;;11.40;100.00
73941;BME280;62294;48.554;10.202;2023-09-30T05:02:52;96763.50;;;11.45;100.00
73941;BME280;62294;48.554;10.202;2023-09-30T05:05:19;96775.56;;;11.54;100.00
73941;BME280;62294;48.554;10.202;2023-09-30T05:07:46;96773.31;;;11.51;100.00
73941;BME280;62294;48.554;10.202;2023-09-30T05:10:14;96774.94;;;11.52;100.00
73941;BME280;62294;48.554;10.202;2023-09-30T05:12:43;96779.84;;;11.48;100.00
73941;BME280;62294;48.554;10.202;2023-09-30T05:15:14;96783.13;;;11.50;100.00
73941;BME280;62294;48.554;10.202;2023-09-30T05:17:42;96782.72;;;11.47;100.00
73941;BME280;62294;48.554;10.202;2023-09-30T05:20:13;96785.59;;;11.52;100.00
73941;BME280;62294;48.554;10.202;2023-09-30T05:22:40;96790.06;;;11.77;100.00
73941;BME280;62294;48.554;10.202;2023-09-30T05:25:12;96793.34;;;11.66;100.00
73941;BME280;62294;48.554;10.202;2023-09-30T05:27:45;96783.34;;;11.68;100.00
73941;BME280;62294;48.554;10.202;2023-09-30T05:30:15;96786.00;;;11.75;100.00
73941;BME280;62294;48.554;10.202;2023-09-30T05:32:42;96804.44;;;11.70;100.00
73941;BME280;62294;48.554;10.202;2023-09-30T05:35:08;96788.22;;;11.78;100.00
73941;BME280;62294;48.554;10.202;2023-09-30T05:37:44;96790.69;;;11.73;100.00
73941;BME280;62294;48.554;10.202;2023-09-30T05:40:13;96788.84;;;11.60;100.00
73941;BME280;62294;48.554;10.202;2023-09-30T05:42:50;96785.19;;;11.41;100.00
73941;BME280;62294;48.554;10.202;2023-09-30T05:45:16;96785.59;;;11.32;100.00
73941;BME280;62294;48.554;10.202;2023-09-30T05:47:43;96781.09;;;11.32;100.00
73941;BME280;62294;48.554;10.202;2023-09-30T05:50:17;96797.50;;;11.43;100.00
73941;BME280;62294;48.554;10.202;2023-09-30T05:52:44;96796.44;;;11.57;100.00
73941;BME280;62294;48.554;10.202;2023-09-30T05:55:13;96791.75;;;11.59;100.00
73941;BME280;62294;48.554;10.202;2023-09-30T05:57:41;96796.03;;;11.73;100.00
73941;BME280;62294;48.554;10.202;2023-09-30T06:00:11;96800.34;;;11.48;100.00
73941;BME280;62294;48.554;10.202;2023-09-30T06:02:41;96805.47;;;11.49;100.00
73941;BME280;62294;48.554;10.202;2023-09-30T06:05:08;96806.06;;;11.64;100.00
73941;BME280;62294;48.554;10.202;2023-09-30T06:07:35;96813.44;;;11.69;100.00
73941;BME280;62294;48.554;10.202;2023-09-30T06:10:02;96804.00;;;11.86;100.00
73941;BME280;62294;48.554;10.202;2023-09-30T06:12:29;96794.50;;;12.09;100.00
73941;BME280;62294;48.554;10.202;2023-09-30T06:14:55;96790.72;;;12.30;100.00
73941;BME280;62294;48.554;10.202;2023-09-30T06:17:22;96787.75;;;12.51;100.00
73941;BME280;62294;48.554;10.202;2023-09-30T06:19:49;96793.81;;;12.71;100.00
73941;BME280;62294;48.554;10.202;2023-09-30T06:22:17;96804.97;;;12.55;100.00
73941;BME280;62294;48.554;10.202;2023-09-30T06:24:43;96810.31;;;12.93;100.00
73941;BME280;62294;48.554;10.202;2023-09-30T06:27:10;96812.25;;;13.11;100.00
73941;BME280;62294;48.554;10.202;2023-09-30T06:29:39;96824.81;;;13.04;100.00
73941;BME280;62294;48.554;10.202;2023-09-30T06:32:07;96835.16;;;13.25;100.00
73941;BME280;62294;48.554;10.202;2023-09-30T06:34:33;96837.13;;;13.05;100.00
73941;BME280;62294;48.554;10.202;2023-09-30T06:37:00;96844.78;;;13.26;100.00
73941;BME280;62294;48.554;10.202;2023-09-30T06:39:27;96874.88;;;13.39;100.00
73941;BME280;62294;48.554;10.202;2023-09-30T06:41:55;96879.88;;;13.61;100.00
73941;BME280;62294;48.554;10.202;2023-09-30T06:44:22;96875.94;;;13.63;100.00
73941;BME280;62294;48.554;10.202;2023-09-30T06:46:51;96878.50;;;13.76;100.00
73941;BME280;62294;48.554;10.202;2023-09-30T06:49:17;96899.75;;;13.71;100.00
73941;BME280;62294;48.554;10.202;2023-09-30T06:51:44;96918.75;;;13.81;100.00
73941;BME280;62294;48.554;10.202;2023-09-30T06:54:11;96920.34;;;13.89;100.00
73941;BME280;62294;48.554;10.202;2023-09-30T06:56:38;96925.75;;;13.82;100.00
73941;BME280;62294;48.554;10.202;2023-09-30T06:59:04;96935.59;;;13.82;100.00
73941;BME280;62294;48.554;10.202;2023-09-30T07:01:33;96938.16;;;13.70;100.00
73941;BME280;62294;48.554;10.202;2023-09-30T07:03:59;96937.19;;;13.89;100.00
73941;BME280;62294;48.554;10.202;2023-09-30T07:06:26;96954.13;;;14.01;100.00
73941;BME280;62294;48.554;10.202;2023-09-30T07:08:53;96942.69;;;14.19;100.00
73941;BME280;62294;48.554;10.202;2023-09-30T07:11:27;96942.69;;;14.19;100.00
73941;BME280;62294;48.554;10.202;2023-09-30T07:13:56;96956.78;;;14.26;100.00
73941;BME280;62294;48.554;10.202;2023-09-30T07:16:22;96947.16;;;14.50;100.00
73941;BME280;62294;48.554;10.202;2023-09-30T07:18:49;96949.00;;;14.67;100.00
73941;BME280;62294;48.554;10.202;2023-09-30T07:21:16;96965.13;;;14.79;100.00
73941;BME280;62294;48.554;10.202;2023-09-30T07:23:43;96963.34;;;15.09;100.00
73941;BME280;62294;48.554;10.202;2023-09-30T07:26:10;96962.94;;;15.42;100.00
73941;BME280;62294;48.554;10.202;2023-09-30T07:28:36;96969.88;;;16.02;100.00
73941;BME280;62294;48.554;10.202;2023-09-30T07:31:03;96973.84;;;16.00;100.00
73941;BME280;62294;48.554;10.202;2023-09-30T07:33:30;96976.88;;;15.92;100.00
73941;BME280;62294;48.554;10.202;2023-09-30T07:35:57;96987.69;;;15.85;100.00
73941;BME280;62294;48.554;10.202;2023-09-30T07:38:23;96989.41;;;16.44;100.00
73941;BME280;62294;48.554;10.202;2023-09-30T07:40:49;97005.59;;;16.26;100.00
73941;BME280;62294;48.554;10.202;2023-09-30T07:43:17;96993.88;;;15.56;100.00
73941;BME280;62294;48.554;10.202;2023-09-30T07:45:44;96988.69;;;15.73;100.00
73941;BME280;62294;48.554;10.202;2023-09-30T07:48:10;96991.84;;;15.70;100.00
73941;BME280;62294;48.554;10.202;2023-09-30T07:50:37;96988.50;;;16.62;100.00
73941;BME280;62294;48.554;10.202;2023-09-30T07:53:05;96993.03;;;16.38;100.00
73941;BME280;62294;48.554;10.202;2023-09-30T07:55:32;96995.34;;;17.04;100.00
73941;BME280;62294;48.554;10.202;2023-09-30T07:57:58;97020.09;;;17.57;100.00
73941;BME280;62294;48.554;10.202;2023-09-30T08:00:27;97014.25;;;18.67;100.00
73941;BME280;62294;48.554;10.202;2023-09-30T08:02:53;97034.75;;;18.06;100.00
73941;BME280;62294;48.554;10.202;2023-09-30T08:05:20;97046.81;;;17.24;100.00
73941;BME280;62294;48.554;10.202;2023-09-30T08:07:46;97034.28;;;17.30;100.00
73941;BME280;62294;48.554;10.202;2023-09-30T08:10:13;97032.94;;;17.16;100.00
73941;BME280;62294;48.554;10.202;2023-09-30T08:12:42;97030.09;;;17.34;100.00
73941;BME280;62294;48.554;10.202;2023-09-30T08:15:12;97043.63;;;17.39;100.00
73941;BME280;62294;48.554;10.202;2023-09-30T08:17:40;97054.59;;;18.33;100.00
73941;BME280;62294;48.554;10.202;2023-09-30T08:20:07;97053.31;;;19.24;100.00
73941;BME280;62294;48.554;10.202;2023-09-30T08:22:38;97048.44;;;20.34;100.00
73941;BME280;62294;48.554;10.202;2023-09-30T08:25:05;97064.53;;;21.25;100.00
73941;BME280;62294;48.554;10.202;2023-09-30T08:27:33;97074.22;;;21.15;100.00
73941;BME280;62294;48.554;10.202;2023-09-30T08:29:59;97085.56;;;20.49;100.00
73941;BME280;62294;48.554;10.202;2023-09-30T08:32:25;97084.09;;;21.37;100.00
73941;BME280;62294;48.554;10.202;2023-09-30T08:34:52;97071.28;;;21.17;100.00
73941;BME280;62294;48.554;10.202;2023-09-30T08:37:20;97082.91;;;22.51;100.00
73941;BME280;62294;48.554;10.202;2023-09-30T08:39:47;97085.88;;;22.55;100.00
73941;BME280;62294;48.554;10.202;2023-09-30T08:42:14;97081.00;;;23.07;100.00
73941;BME280;62294;48.554;10.202;2023-09-30T08:44:42;97090.22;;;21.69;100.00
73941;BME280;62294;48.554;10.202;2023-09-30T08:47:09;97099.97;;;19.63;100.00
73941;BME280;62294;48.554;10.202;2023-09-30T08:49:38;97096.66;;;19.77;100.00
73941;BME280;62294;48.554;10.202;2023-09-30T08:52:09;97083.66;;;20.76;100.00
73941;BME280;62294;48.554;10.202;2023-09-30T08:54:40;97082.91;;;21.23;100.00
73941;BME280;62294;48.554;10.202;2023-09-30T08:57:09;97092.56;;;21.08;100.00
73941;BME280;62294;48.554;10.202;2023-09-30T08:59:37;97083.97;;;21.16;100.00
73941;BME280;62294;48.554;10.202;2023-09-30T09:02:08;97084.16;;;20.73;100.00
73941;BME280;62294;48.554;10.202;2023-09-30T09:04:36;97083.72;;;19.79;100.00
73941;BME280;62294;48.554;10.202;2023-09-30T09:07:04;97087.25;;;19.37;100.00
73941;BME280;62294;48.554;10.202;2023-09-30T09:09:30;97078.06;;;21.19;100.00
73941;BME280;62294;48.554;10.202;2023-09-30T09:11:58;97081.19;;;21.48;100.00
73941;BME280;62294;48.554;10.202;2023-09-30T09:14:41;97074.13;;;22.09;100.00
73941;BME280;62294;48.554;10.202;2023-09-30T09:17:10;97081.16;;;22.05;100.00
73941;BME280;62294;48.554;10.202;2023-09-30T09:19:37;97090.94;;;22.06;100.00
73941;BME280;62294;48.554;10.202;2023-09-30T09:22:04;97100.66;;;22.07;100.00
73941;BME280;62294;48.554;10.202;2023-09-30T09:24:36;97097.00;;;21.25;100.00
73941;BME280;62294;48.554;10.202;2023-09-30T09:27:10;97095.03;;;20.78;100.00
73941;BME280;62294;48.554;10.202;2023-09-30T09:29:39;97085.22;;;20.67;100.00
73941;BME280;62294;48.554;10.202;2023-09-30T09:32:07;97084.94;;;21.94;100.00
73941;BME280;62294;48.554;10.202;2023-09-30T09:34:35;97075.25;;;20.41;100.00
73941;BME280;62294;48.554;10.202;2023-09-30T09:37:13;97077.47;;;20.22;100.00
73941;BME280;62294;48.554;10.202;2023-09-30T09:39:40;97084.97;;;22.09;100.00
73941;BME280;62294;48.554;10.202;2023-09-30T09:42:07;97098.13;;;22.83;100.00
73941;BME280;62294;48.554;10.202;2023-09-30T09:44:36;97093.19;;;22.49;100.00
73941;BME280;62294;48.554;10.202;2023-09-30T09:47:05;97093.25;;;22.75;100.00
73941;BME280;62294;48.554;10.202;2023-09-30T09:49:32;97094.84;;;23.11;100.00
73941;BME280;62294;48.554;10.202;2023-09-30T09:52:00;97098.41;;;24.54;100.00
73941;BME280;62294;48.554;10.202;2023-09-30T09:54:28;97098.63;;;23.10;100.00
73941;BME280;62294;48.554;10.202;2023-09-30T09:56:56;97102.41;;;23.39;100.00
73941;BME280;62294;48.554;10.202;2023-09-30T09:59:25;97095.88;;;24.68;100.00
73941;BME280;62294;48.554;10.202;2023-09-30T10:01:52;97092.31;;;23.65;100.00
73941;BME280;62294;48.554;10.202;2023-09-30T10:04:19;97095.03;;;23.70;100.00
73941;BME280;62294;48.554;10.202;2023-09-30T10:06:51;97079.81;;;25.63;100.00
73941;BME280;62294;48.554;10.202;2023-09-30T10:09:19;97078.94;;;25.67;100.00
73941;BME280;62294;48.554;10.202;2023-09-30T10:11:46;97093.25;;;23.00;100.00
73941;BME280;62294;48.554;10.202;2023-09-30T10:14:32;97089.66;;;21.67;100.00
73941;BME280;62294;48.554;10.202;2023-09-30T10:16:59;97063.66;;;23.39;100.00
73941;BME280;62294;48.554;10.202;2023-09-30T10:19:26;97067.09;;;24.62;100.00
73941;BME280;62294;48.554;10.202;2023-09-30T10:22:26;97072.44;;;25.63;100.00
73941;BME280;62294;48.554;10.202;2023-09-30T10:24:55;97066.50;;;25.32;100.00
73941;BME280;62294;48.554;10.202;2023-09-30T10:29:53;97076.50;;;20.97;100.00
73941;BME280;62294;48.554;10.202;2023-09-30T10:32:20;97061.47;;;21.06;100.00
73941;BME280;62294;48.554;10.202;2023-09-30T10:34:48;97060.91;;;21.51;100.00
73941;BME280;62294;48.554;10.202;2023-09-30T10:37:23;97053.25;;;23.66;100.00
73941;BME280;62294;48.554;10.202;2023-09-30T10:39:56;97059.38;;;24.74;100.00
73941;BME280;62294;48.554;10.202;2023-09-30T10:42:46;97067.88;;;24.29;100.00
73941;BME280;62294;48.554;10.202;2023-09-30T10:50:52;97062.84;;;21.60;100.00
73941;BME280;62294;48.554;10.202;2023-09-30T10:53:21;97057.59;;;20.60;100.00
73941;BME280;62294;48.554;10.202;2023-09-30T10:55:55;97056.72;;;19.53;100.00
73941;BME280;62294;48.554;10.202;2023-09-30T10:58:38;97045.28;;;20.16;100.00
73941;BME280;62294;48.554;10.202;2023-09-30T11:01:05;97054.19;;;21.58;100.00
73941;BME280;62294;48.554;10.202;2023-09-30T11:03:32;97048.81;;;21.68;100.00
73941;BME280;62294;48.554;10.202;2023-09-30T11:05:59;97055.44;;;21.41;100.00
73941;BME280;62294;48.554;10.202;2023-09-30T11:08:40;97058.44;;;21.02;100.00
73941;BME280;62294;48.554;10.202;2023-09-30T11:11:07;97057.56;;;21.34;100.00
73941;BME280;62294;48.554;10.202;2023-09-30T11:13:34;97054.31;;;21.83;100.00
73941;BME280;62294;48.554;10.202;2023-09-30T11:16:04;97054.47;;;21.62;100.00
73941;BME280;62294;48.554;10.202;2023-09-30T11:18:32;97043.66;;;21.67;100.00
73941;BME280;62294;48.554;10.202;2023-09-30T11:21:11;97047.97;;;21.68;100.00
73941;BME280;62294;48.554;10.202;2023-09-30T11:23:40;97035.50;;;21.57;100.00
73941;BME280;62294;48.554;10.202;2023-09-30T11:26:07;97038.34;;;21.87;100.00
73941;BME280;62294;48.554;10.202;2023-09-30T11:28:38;97047.91;;;22.15;100.00
73941;BME280;62294;48.554;10.202;2023-09-30T11:31:10;97037.63;;;22.17;100.00
73941;BME280;62294;48.554;10.202;2023-09-30T11:33:51;97028.44;;;22.73;100.00
73941;BME280;62294;48.554;10.202;2023-09-30T11:36:20;97028.72;;;22.67;100.00
73941;BME280;62294;48.554;10.202;2023-09-30T11:38:49;97018.03;;;20.49;100.00
73941;BME280;62294;48.554;10.202;2023-09-30T11:41:16;97013.69;;;20.43;100.00
73941;BME280;62294;48.554;10.202;2023-09-30T11:44:00;97000.16;;;21.16;100.00
73941;BME280;62294;48.554;10.202;2023-09-30T11:46:27;97000.22;;;21.99;100.00
73941;BME280;62294;48.554;10.202;2023-09-30T11:49:01;97002.06;;;21.16;100.00
73941;BME280;62294;48.554;10.202;2023-09-30T11:51:29;96995.31;;;21.85;100.00
73941;BME280;62294;48.554;10.202;2023-09-30T11:53:56;97005.38;;;22.25;100.00
73941;BME280;62294;48.554;10.202;2023-09-30T11:56:24;97011.69;;;21.59;100.00
73941;BME280;62294;48.554;10.202;2023-09-30T11:58:57;97007.41;;;21.68;100.00
73941;BME280;62294;48.554;10.202;2023-09-30T12:01:24;97012.94;;;21.98;100.00
73941;BME280;62294;48.554;10.202;2023-09-30T12:03:52;97001.91;;;21.43;100.00
73941;BME280;62294;48.554;10.202;2023-09-30T12:06:24;97004.66;;;21.53;100.00
73941;BME280;62294;48.554;10.202;2023-09-30T12:08:51;97012.66;;;21.28;100.00
73941;BME280;62294;48.554;10.202;2023-09-30T12:11:18;97015.53;;;21.63;100.00
73941;BME280;62294;48.554;10.202;2023-09-30T12:13:45;97009.34;;;21.10;100.00
73941;BME280;62294;48.554;10.202;2023-09-30T12:16:15;97000.25;;;19.68;100.00
73941;BME280;62294;48.554;10.202;2023-09-30T12:18:42;97003.19;;;19.23;100.00
73941;BME280;62294;48.554;10.202;2023-09-30T12:21:10;97008.56;;;19.01;100.00
73941;BME280;62294;48.554;10.202;2023-09-30T12:23:37;97007.84;;;19.49;100.00
73941;BME280;62294;48.554;10.202;2023-09-30T12:26:04;97008.69;;;19.33;100.00
73941;BME280;62294;48.554;10.202;2023-09-30T12:28:41;97002.94;;;19.46;100.00
73941;BME280;62294;48.554;10.202;2023-09-30T12:31:07;97007.97;;;20.71;100.00
73941;BME280;62294;48.554;10.202;2023-09-30T12:33:34;97019.91;;;20.43;100.00
73941;BME280;62294;48.554;10.202;2023-09-30T12:36:01;97013.88;;;19.35;100.00
73941;BME280;62294;48.554;10.202;2023-09-30T12:38:27;97018.09;;;19.96;100.00
73941;BME280;62294;48.554;10.202;2023-09-30T12:40:55;97014.03;;;19.71;100.00
73941;BME280;62294;48.554;10.202;2023-09-30T12:43:22;97012.56;;;19.86;100.00
73941;BME280;62294;48.554;10.202;2023-09-30T12:45:48;96995.19;;;19.98;100.00
73941;BME280;62294;48.554;10.202;2023-09-30T12:48:15;97008.59;;;19.66;100.00
73941;BME280;62294;48.554;10.202;2023-09-30T12:50:44;97005.91;;;20.88;100.00
73941;BME280;62294;48.554;10.202;2023-09-30T12:53:11;97013.03;;;20.04;100.00
73941;BME280;62294;48.554;10.202;2023-09-30T12:55:37;96995.22;;;19.33;100.00